Time;durP1;ratioP1;P1;durP2;ratioP2;P2;SDS_P1;SDS_P2;PMS_P1;PMS_P2;Temp;Humidity;BMP_temperature;BMP_pressure;BME280_temperature;BME280_humidity;BME280_pressure;Samples;Min_cycle;Max_cycle;Signal;HPM_P1;HPM_P2
2022/03/21 00:01:57;;;;;;;10.30;6.85;;;;;;;2.28;35.56;101281.84;4970622;28;20062;-68
2022/03/21 00:04:31;;;;;;;;;;;;;;;2.18;35.91;101273.91;4983991;28;20094;-67
2022/03/21 00:07:04;;;;;;;8.82;6.50;;;;;;;1.03;35.42;101088.00;4970511;28;19941;-67
2022/03/21 00:09:33;;;;;;;10.73;7.82;;;;;;;0.87;35.64;101053.03;4987025;28;20042;-68
2022/03/21 00:12:04;;;;;;;10.20;7.05;;;;;;;1.55;35.31;101167.81;4987033;28;20043;-67
2022/03/21 00:14:35;;;;;;;8.80;7.15;;;;;;;1.18;35.71;101124.75;4970394;28;20231;-67
2022/03/21 00:17:04;;;;;;;11.45;7.95;;;;;;;2.06;35.82;101286.88;4954820;28;20047;-67
2022/03/21 00:19:36;;;;;;;12.30;8.48;;;;;;;2.04;35.67;101286.00;4987011;28;20101;-67
2022/03/21 00:22:04;;;;;;;18.35;7.03;;;;;;;1.99;35.84;101272.00;4969716;28;20042;-67
2022/03/21 00:24:35;;;;;;;9.55;7.05;;;;;;;2.01;35.44;101280.72;4986788;28;20298;-67
2022/03/21 00:27:08;;;;;;;11.63;7.80;;;;;;;2.08;35.30;101272.06;4970471;28;20050;-67
2022/03/21 00:29:40;;;;;;;11.52;6.95;;;;;;;2.01;35.38;101274.63;4986755;28;20362;-67
2022/03/21 00:32:11;;;;;;;10.45;7.85;;;;;;;2.02;35.41;101279.00;4987043;28;20203;-68
2022/03/21 00:34:42;;;;;;;11.05;7.38;;;;;;;2.02;35.50;101264.16;4986982;28;20290;-67
2022/03/21 00:37:12;;;;;;;11.73;8.10;;;;;;;1.62;35.71;101213.22;4986864;28;20385;-67
2022/03/21 00:39:41;;;;;;;8.35;6.28;;;;;;;1.93;35.94;101265.81;4986805;28;20050;-67
2022/03/21 00:42:10;;;;;;;10.32;6.97;;;;;;;1.63;35.85;101207.13;4986890;28;20043;-67
2022/03/21 00:44:40;;;;;;;13.90;9.52;;;;;;;2.01;35.40;101261.53;4986787;28;20046;-67
2022/03/21 00:47:14;;;;;;;9.18;7.30;;;;;;;2.01;35.58;101254.56;4987126;28;20038;-67
2022/03/21 00:49:48;;;;;;;10.55;7.05;;;;;;;1.96;35.82;101260.63;4986985;28;20294;-67
2022/03/21 00:52:20;;;;;;;9.75;6.90;;;;;;;2.00;35.73;101262.41;4986561;28;20250;-67
2022/03/21 00:54:52;;;;;;;9.48;7.30;;;;;;;2.03;35.42;101262.44;4986441;28;20047;-67
2022/03/21 00:57:25;;;;;;;9.70;6.35;;;;;;;1.69;35.45;101193.25;4986743;28;20038;-67
2022/03/21 00:59:57;;;;;;;9.55;7.57;;;;;;;2.08;35.40;101255.50;4986750;28;20043;-67
2022/03/21 01:02:29;;;;;;;9.32;6.47;;;;;;;2.07;35.38;101252.00;4986384;28;20043;-67
2022/03/21 01:05:03;;;;;;;8.88;6.13;;;;;;;2.07;35.37;101244.16;4986364;28;20055;-67
2022/03/21 01:07:36;;;;;;;9.88;7.28;;;;;;;2.11;35.34;101245.94;4986625;28;20066;-67
2022/03/21 01:10:10;;;;;;;8.68;6.88;;;;;;;1.99;35.72;101244.97;4986391;28;20102;-67
2022/03/21 01:12:43;;;;;;;9.18;6.03;;;;;;;1.96;35.55;101235.34;4986581;28;20098;-67
2022/03/21 01:15:17;;;;;;;7.00;6.05;;;;;;;2.02;35.22;101237.16;4986602;28;20109;-67
2022/03/21 01:17:50;;;;;;;11.32;6.28;;;;;;;1.99;35.46;101234.50;4986444;28;20073;-67
2022/03/21 01:20:25;;;;;;;8.45;6.38;;;;;;;1.90;35.79;101257.06;4969486;28;20045;-67
2022/03/21 01:22:57;;;;;;;9.57;6.03;;;;;;;1.54;35.78;101173.03;4969822;28;20050;-67
2022/03/21 01:25:30;;;;;;;9.02;5.95;;;;;;;1.57;35.69;101165.22;4986276;28;20053;-67
2022/03/21 01:28:02;;;;;;;9.02;6.75;;;;;;;1.94;35.70;101225.72;4986191;28;20054;-67
2022/03/21 01:30:36;;;;;;;9.45;6.45;;;;;;;1.96;35.67;101224.88;4986124;28;20043;-67
2022/03/21 01:33:08;;;;;;;9.07;6.63;;;;;;;1.88;35.94;101227.44;4986425;28;20093;-67
2022/03/21 01:35:42;;;;;;;10.15;5.97;;;;;;;1.84;35.79;101220.41;4990026;28;20051;-67
2022/03/21 01:38:14;;;;;;;11.38;7.40;;;;;;;1.75;36.03;101199.41;4989801;28;20097;-67
2022/03/21 01:40:46;;;;;;;9.48;5.13;;;;;;;1.89;35.94;101215.22;4990093;28;20043;-67
2022/03/21 01:43:19;;;;;;;8.63;7.28;;;;;;;1.84;36.07;101217.81;4989735;28;20085;-67
2022/03/21 01:45:51;;;;;;;8.30;5.72;;;;;;;1.94;35.85;101221.38;4989608;28;20357;-67
2022/03/21 01:48:23;;;;;;;10.85;6.72;;;;;;;1.86;35.91;101218.69;4989962;28;20349;-67
2022/03/21 01:50:57;;;;;;;9.70;6.25;;;;;;;1.80;36.29;101212.53;4989866;28;20043;-67
2022/03/21 01:56:18;;;;;;;9.02;6.05;;;;;;;1.78;36.36;101204.66;4989474;28;20090;-67
2022/03/21 01:58:51;;;;;;;9.70;5.90;;;;;;;1.77;36.42;101217.72;4989753;28;20047;-67
2022/03/21 02:01:23;;;;;;;9.65;6.75;;;;;;;1.76;36.21;101208.13;4989418;28;20188;-67
2022/03/21 02:03:55;;;;;;;7.40;5.85;;;;;;;1.80;36.03;101209.91;4972465;28;20046;-67
2022/03/21 02:06:29;;;;;;;8.25;5.90;;;;;;;1.51;35.91;101146.84;4989123;28;20058;-66
2022/03/21 02:09:03;;;;;;;10.02;6.47;;;;;;;1.92;35.93;101203.94;4989508;28;20043;-66
2022/03/21 02:11:37;;;;;;;6.95;5.78;;;;;;;1.98;35.72;101204.84;4989281;28;20039;-67
2022/03/21 02:14:11;;;;;;;9.18;6.22;;;;;;;1.97;35.82;101204.84;4972382;28;20062;-67
2022/03/21 02:16:43;;;;;;;8.77;6.60;;;;;;;1.95;36.14;101209.19;4989458;28;20047;-66
2022/03/21 02:19:25;;;;;;;8.00;6.05;;;;;;;1.58;36.45;101141.72;4989121;28;20294;-67
2022/03/21 02:22:27;;;;;;;8.50;5.50;;;;;;;1.92;36.66;101207.41;4989132;28;20042;-67
2022/03/21 02:25:06;;;;;;;8.23;5.88;;;;;;;1.81;36.53;101202.09;4989265;28;20088;-66
2022/03/21 02:27:41;;;;;;;7.72;5.80;;;;;;;1.80;36.45;101197.72;4989050;28;20183;-67
2022/03/21 02:30:15;;;;;;;8.32;6.55;;;;;;;1.77;36.43;101197.69;4988953;28;20039;-67
2022/03/21 02:32:48;;;;;;;9.13;6.05;;;;;;;1.80;36.51;101202.06;4988910;28;20054;-67
2022/03/21 02:35:22;;;;;;;11.20;6.38;;;;;;;1.81;36.29;101198.59;4988811;28;20054;-67
2022/03/21 02:37:56;;;;;;;8.23;6.03;;;;;;;1.80;36.25;101212.53;4989160;28;20050;-66
2022/03/21 02:40:29;;;;;;;7.75;5.78;;;;;;;0.45;36.51;100972.53;4988755;28;20046;-67
2022/03/21 02:43:03;;;;;;;8.77;5.72;;;;;;;1.76;36.47;101208.13;4988696;28;20038;-67
2022/03/21 02:45:35;;;;;;;8.10;6.22;;;;;;;1.77;36.33;101202.03;4988579;28;20046;-67
2022/03/21 02:48:08;;;;;;;8.93;5.82;;;;;;;1.72;36.64;101204.59;4988845;28;20043;-67
2022/03/21 02:50:49;;;;;;;9.27;6.22;;;;;;;1.71;36.70;101200.25;4988786;28;20047;-67
2022/03/21 02:53:23;;;;;;;8.43;6.35;;;;;;;0.50;36.79;101012.59;4988729;28;20050;-67
2022/03/21 02:55:56;;;;;;;9.80;6.63;;;;;;;1.44;36.79;101182.50;4988766;28;20047;-67
2022/03/21 02:58:30;;;;;;;10.25;5.97;;;;;;;1.39;36.91;101154.56;4988695;28;20042;-67
2022/03/21 03:01:09;;;;;;;8.85;6.75;;;;;;;0.45;36.98;101008.19;4988644;28;20313;-66
2022/03/21 03:03:43;;;;;;;10.05;6.68;;;;;;;1.65;36.53;101204.53;4988330;28;20039;-67
2022/03/21 03:06:16;;;;;;;7.88;5.65;;;;;;;1.65;36.58;101201.91;4971253;28;20055;-67
2022/03/21 03:08:48;;;;;;;8.60;5.90;;;;;;;1.61;36.61;101208.84;4988504;28;20043;-67
2022/03/21 03:11:21;;;;;;;8.77;6.47;;;;;;;1.63;36.66;101204.50;4988153;28;20325;-67
2022/03/21 03:13:55;;;;;;;11.73;6.85;;;;;;;1.63;36.96;101203.63;4988056;28;20043;-66
2022/03/21 03:16:27;;;;;;;7.87;6.07;;;;;;;1.31;36.64;101138.81;4971548;28;20183;-67
2022/03/21 03:18:59;;;;;;;8.68;5.90;;;;;;;1.58;36.76;101196.59;4987999;28;20662;-67
2022/03/21 03:21:36;;;;;;;10.45;6.68;;;;;;;1.60;37.15;101207.09;4971090;28;20039;-67
2022/03/21 03:24:11;;;;;;;7.63;6.07;;;;;;;1.58;36.80;101204.44;4987987;28;20218;-67
2022/03/21 03:26:43;;;;;;;8.30;6.38;;;;;;;1.66;36.67;101211.50;4988096;28;20294;-67
2022/03/21 03:29:17;;;;;;;10.32;7.30;;;;;;;1.32;36.68;101147.53;4970797;28;20203;-67
2022/03/21 03:31:49;;;;;;;10.05;6.53;;;;;;;1.67;36.88;101201.06;4987764;28;20180;-67
2022/03/21 03:34:22;;;;;;;10.57;6.05;;;;;;;1.70;36.85;101195.00;4987714;28;20110;-66
2022/03/21 03:36:54;;;;;;;10.25;7.13;;;;;;;1.43;36.86;101144.16;4970775;28;20045;-67
2022/03/21 03:39:26;;;;;;;7.78;6.35;;;;;;;1.74;36.60;101188.94;4971158;28;20163;-67
2022/03/21 03:41:59;;;;;;;9.10;6.20;;;;;;;1.71;37.07;101191.53;4970850;28;20047;-66
2022/03/21 03:44:32;;;;;;;7.93;5.95;;;;;;;1.32;36.98;101129.25;4971067;28;20312;-67
2022/03/21 03:47:05;;;;;;;8.40;6.75;;;;;;;1.60;37.19;101196.63;4987426;28;20104;-66
2022/03/21 03:49:37;;;;;;;8.45;6.18;;;;;;;1.65;37.08;101192.34;4987436;28;20043;-67
2022/03/21 03:52:10;;;;;;;9.40;5.75;;;;;;;1.61;37.09;101187.06;4987414;28;20291;-67
2022/03/21 03:54:40;;;;;;;6.78;5.40;;;;;;;1.59;37.23;101192.25;4987704;28;20067;-67
2022/03/21 03:57:11;;;;;;;10.70;6.70;;;;;;;1.64;36.84;101192.31;4986731;28;20277;-67
2022/03/21 03:59:41;;;;;;;8.45;5.80;;;;;;;1.62;37.13;101187.06;4987312;28;20312;-66
2022/03/21 04:02:10;;;;;;;8.88;5.63;;;;;;;1.59;36.74;101184.41;4987274;28;20047;-67
2022/03/21 04:04:40;;;;;;;7.43;5.05;;;;;;;1.52;37.34;101195.66;4987010;28;20042;-67
2022/03/21 04:07:11;;;;;;;8.15;6.47;;;;;;;1.57;37.04;101192.22;4987387;28;20042;-66
2022/03/21 04:09:40;;;;;;;9.68;5.82;;;;;;;1.63;36.94;101195.78;4987086;28;20038;-67
2022/03/21 04:12:11;;;;;;;7.45;5.85;;;;;;;1.62;37.40;101196.66;4970336;28;20061;-67
2022/03/21 04:14:43;;;;;;;10.60;5.82;;;;;;;1.59;37.46;101198.34;4987329;28;20038;-67
2022/03/21 04:17:11;;;;;;;10.05;6.88;;;;;;;1.61;37.26;101200.13;4969794;28;20064;-67
2022/03/21 04:19:41;;;;;;;9.40;7.50;;;;;;;1.27;37.58;101157.94;4987064;28;20109;-67
2022/03/21 04:22:11;;;;;;;11.27;7.00;;;;;;;1.45;37.53;101196.44;4987262;28;20037;-67
2022/03/21 04:24:41;;;;;;;9.35;6.20;;;;;;;1.10;37.72;101141.19;4986972;28;20349;-67
2022/03/21 04:27:11;;;;;;;9.95;7.03;;;;;;;1.47;37.45;101190.38;4987024;28;20301;-66
2022/03/21 04:29:43;;;;;;;7.93;6.43;;;;;;;1.38;37.89;101185.03;4986846;28;20043;-66
2022/03/21 04:32:12;;;;;;;11.63;6.93;;;;;;;1.34;38.09;101193.69;4987157;28;20042;-66
2022/03/21 04:34:41;;;;;;;11.02;7.43;;;;;;;1.29;38.08;101195.38;4986766;28;20039;-66
2022/03/21 04:37:12;;;;;;;11.30;7.10;;;;;;;0.97;38.21;101141.91;4986726;28;20043;-66
2022/03/21 04:39:42;;;;;;;9.73;6.82;;;;;;;1.31;38.26;101201.50;4986712;28;20039;-66
2022/03/21 04:42:14;;;;;;;10.40;8.05;;;;;;;1.13;39.14;101196.06;4987189;28;20049;-66
2022/03/21 04:44:46;;;;;;;14.32;9.00;;;;;;;1.03;39.23;101210.75;4986280;28;20082;-67
2022/03/21 04:47:20;;;;;;;11.85;7.82;;;;;;;0.04;39.22;101059.78;4986623;28;20045;-67
2022/03/21 04:49:53;;;;;;;11.43;7.40;;;;;;;-0.46;39.32;101010.38;4986686;28;20053;-67
2022/03/21 04:52:25;;;;;;;11.02;8.38;;;;;;;0.43;39.12;101137.72;4987055;28;20105;-67
2022/03/21 04:54:57;;;;;;;10.23;7.13;;;;;;;0.75;40.28;101206.88;4986959;28;20053;-67
2022/03/21 04:57:31;;;;;;;9.57;7.15;;;;;;;0.42;39.93;101141.16;4969780;28;20062;-66
2022/03/21 05:00:06;;;;;;;10.15;8.27;;;;;;;0.84;39.06;101209.63;4986763;28;20333;-66
2022/03/21 05:02:38;;;;;;;;;;;;;;;0.88;40.50;101210.53;4970365;28;20251;-66
2022/03/21 05:05:10;;;;;;;13.27;8.82;;;;;;;0.98;39.28;101212.41;4986436;28;19923;-67
2022/03/21 05:07:45;;;;;;;11.02;7.25;;;;;;;1.01;38.89;101212.44;4987248;28;20045;-66
2022/03/21 05:10:18;;;;;;;10.20;7.70;;;;;;;0.60;39.01;101146.66;4990644;28;20226;-66
2022/03/21 05:12:51;;;;;;;13.00;8.48;;;;;;;-0.41;39.78;101014.81;4990399;28;20043;-66
2022/03/21 05:15:24;;;;;;;11.75;8.88;;;;;;;0.89;39.67;101214.91;4990312;28;20046;-67
2022/03/21 05:17:56;;;;;;;13.75;9.77;;;;;;;0.88;39.11;101206.19;4990235;28;20046;-66
2022/03/21 05:20:29;;;;;;;13.27;9.43;;;;;;;0.92;39.14;101205.38;4990280;28;20085;-67
2022/03/21 05:31:33;;;;;;;11.32;7.97;;;;;;;1.00;39.50;101220.25;4973664;28;20038;-67
2022/03/21 05:36:55;;;;;;;14.70;9.45;;;;;;;1.01;39.50;101228.13;4973850;28;20046;-66
2022/03/21 05:39:27;;;;;;;10.88;8.75;;;;;;;1.07;39.09;101233.41;4973954;28;20094;-66
2022/03/21 05:41:59;;;;;;;11.15;8.43;;;;;;;0.74;39.36;101172.94;4990357;28;20093;-66
2022/03/21 05:44:31;;;;;;;9.35;7.82;;;;;;;0.59;38.97;101144.88;4973078;28;20050;-67
2022/03/21 05:47:06;;;;;;;11.05;7.97;;;;;;;1.08;39.12;101240.41;4989718;28;20047;-66
2022/03/21 05:49:37;;;;;;;15.77;9.93;;;;;;;1.02;39.35;101248.16;4972985;28;20086;-67
2022/03/21 05:52:09;;;;;;;11.88;9.30;;;;;;;0.65;39.10;101180.63;4972872;28;20046;-67
2022/03/21 05:54:40;;;;;;;12.70;9.82;;;;;;;1.00;39.48;101254.22;4973289;28;20038;-66
2022/03/21 05:57:10;;;;;;;10.90;8.25;;;;;;;0.97;39.56;101243.72;4989834;28;20047;-67
2022/03/21 06:02:31;;;;;;;14.02;8.93;;;;;;;0.61;39.22;101182.31;4989386;28;20097;-67
2022/03/21 06:05:03;;;;;;;11.90;8.90;;;;;;;1.05;39.46;101244.69;4969313;29;20106;-67
2022/03/21 06:07:36;;;;;;;14.18;10.57;;;;;;;1.26;38.83;101245.84;4969480;29;20043;-67
2022/03/21 06:10:09;;;;;;;13.40;9.18;;;;;;;1.47;38.54;101234.78;4970410;29;20043;-67
2022/03/21 06:12:41;;;;;;;11.05;8.35;;;;;;;1.68;38.63;101276.00;4970098;28;20050;-67
2022/03/21 06:15:14;;;;;;;13.02;8.80;;;;;;;1.86;38.46;101251.81;4969494;29;20060;-66
2022/03/21 06:17:47;;;;;;;13.52;9.35;;;;;;;2.02;38.25;101251.09;4969415;29;20063;-66
2022/03/21 06:20:20;;;;;;;11.90;9.02;;;;;;;2.20;38.22;101256.50;4968441;28;20202;-66
2022/03/21 06:22:52;;;;;;;12.73;9.13;;;;;;;2.41;37.76;101255.81;4969833;28;20187;-67
2022/03/21 06:25:25;;;;;;;13.07;9.45;;;;;;;2.62;37.67;101256.84;4969975;28;20051;-67
2022/03/21 06:27:57;;;;;;;12.05;8.95;;;;;;;2.90;37.19;101252.66;4969648;28;20298;-67
2022/03/21 06:30:31;;;;;;;13.63;8.68;;;;;;;3.25;37.18;101250.22;4952793;29;20122;-67
2022/03/21 06:33:04;;;;;;;13.13;9.35;;;;;;;2.17;36.35;101041.97;4969704;28;20035;-66
2022/03/21 06:35:37;;;;;;;11.27;9.07;;;;;;;2.94;36.12;101100.78;4969484;28;20043;-66
2022/03/21 06:38:10;;;;;;;12.70;9.63;;;;;;;4.02;35.09;101263.59;4969808;28;20102;-66
2022/03/21 06:40:43;;;;;;;15.68;9.10;;;;;;;3.95;35.02;101263.59;4969488;28;20040;-66
2022/03/21 06:43:20;;;;;;;13.77;8.80;;;;;;;2.00;35.29;100936.38;4969365;29;20252;-67
2022/03/21 06:45:54;;;;;;;14.18;9.07;;;;;;;3.41;35.59;101189.16;4968745;29;20039;-66
2022/03/21 06:48:28;;;;;;;12.48;8.98;;;;;;;4.02;35.36;101268.84;4968669;29;20043;-67
2022/03/21 06:51:00;;;;;;;12.48;8.90;;;;;;;3.91;35.45;101278.44;4969496;28;20099;-66
2022/03/21 06:53:33;;;;;;;12.40;8.52;;;;;;;3.95;35.42;101277.56;4969437;28;20087;-66
2022/03/21 06:56:05;;;;;;;11.82;9.20;;;;;;;4.03;35.89;101270.59;4969215;28;20219;-66
2022/03/21 06:58:38;;;;;;;10.32;8.43;;;;;;;4.15;35.06;101267.13;4968497;29;20053;-67
2022/03/21 07:01:10;;;;;;;17.13;10.45;;;;;;;4.25;35.60;101265.41;4969047;28;20051;-67
2022/03/21 07:03:44;;;;;;;14.00;9.30;;;;;;;4.45;34.89;101266.31;4969215;29;20098;-67
2022/03/21 07:06:17;;;;;;;13.63;9.88;;;;;;;4.42;34.67;101261.03;4968071;29;20255;-67
2022/03/21 07:08:51;;;;;;;14.40;9.38;;;;;;;4.42;34.51;101263.66;4968760;28;20247;-67
2022/03/21 07:11:23;;;;;;;12.68;8.40;;;;;;;4.56;34.40;101267.19;4968796;29;20252;-66
2022/03/21 07:13:56;;;;;;;15.43;9.00;;;;;;;4.63;34.24;101279.44;4968704;28;20043;-67
2022/03/21 07:16:28;;;;;;;14.10;9.65;;;;;;;4.77;34.01;101269.78;4968687;28;20098;-67
2022/03/21 07:19:01;;;;;;;12.60;8.30;;;;;;;4.89;33.72;101274.19;4968653;28;20090;-66
2022/03/21 07:21:34;;;;;;;14.30;9.68;;;;;;;4.87;33.47;101264.53;4968849;28;20051;-66
2022/03/21 07:24:07;;;;;;;11.63;8.45;;;;;;;4.97;33.32;101263.66;4968538;29;20090;-66
2022/03/21 07:26:40;;;;;;;12.77;8.98;;;;;;;5.11;33.42;101261.88;4968653;29;20103;-66
2022/03/21 07:29:12;;;;;;;11.32;7.25;;;;;;;5.30;33.17;101270.56;4968412;28;20043;-67
2022/03/21 07:31:44;;;;;;;12.68;8.20;;;;;;;5.40;33.12;101260.03;4967470;28;20043;-68
2022/03/21 07:34:18;;;;;;;10.23;7.78;;;;;;;5.55;32.74;101256.44;4968559;28;20090;-66
2022/03/21 07:36:50;;;;;;;10.23;7.32;;;;;;;5.69;32.76;101259.91;4968530;28;20039;-67
2022/03/21 07:39:22;;;;;;;12.70;7.85;;;;;;;5.79;32.50;101265.97;4968466;28;20058;-66
2022/03/21 07:42:00;;;;;;;12.32;8.75;;;;;;;5.92;31.74;101261.53;4968596;28;20090;-67
2022/03/21 07:47:21;;;;;;;10.13;8.20;;;;;;;5.87;32.04;101274.72;4967194;29;20067;-67
2022/03/21 07:49:55;;;;;;;12.00;8.25;;;;;;;5.98;31.95;101266.75;4968318;28;20038;-66
2022/03/21 07:52:27;;;;;;;12.60;8.27;;;;;;;6.09;31.74;101257.91;4967572;29;20286;-66
2022/03/21 07:54:57;;;;;;;9.35;7.53;;;;;;;6.29;31.75;101267.41;4967632;29;20305;-66
2022/03/21 07:57:27;;;;;;;12.93;9.45;;;;;;;5.48;31.43;101159.19;4967953;28;20234;-66
2022/03/21 07:59:57;;;;;;;12.10;8.35;;;;;;;6.52;31.54;101262.84;4967859;29;20194;-66
2022/03/21 08:02:36;;;;;;;14.10;9.65;;;;;;;6.77;31.07;101252.97;5144889;27;20135;-68
2022/03/21 08:05:09;;;;;;;11.70;7.85;;;;;;;6.87;30.80;101266.97;5123689;28;20046;-68
2022/03/21 08:07:43;;;;;;;11.73;8.45;;;;;;;7.04;31.00;101262.38;5123787;28;20125;-68
2022/03/21 08:10:18;;;;;;;10.50;8.13;;;;;;;7.06;30.64;101268.53;5105691;28;20040;-68
2022/03/21 08:12:51;;;;;;;11.05;7.32;;;;;;;7.16;30.29;101261.38;5123628;28;20106;-68
2022/03/21 08:15:23;;;;;;;9.65;7.90;;;;;;;7.26;30.52;101263.03;5123245;28;20040;-68
2022/03/21 08:17:59;;;;;;;12.40;7.45;;;;;;;7.04;29.64;101236.03;5123909;28;20165;-68
2022/03/21 08:20:34;;;;;;;11.77;8.00;;;;;;;7.27;30.16;101259.50;5123008;28;20044;-68
2022/03/21 08:23:11;;;;;;;10.90;7.80;;;;;;;7.32;29.78;101260.31;5105230;28;20044;-68
2022/03/21 08:25:46;;;;;;;12.57;7.75;;;;;;;6.23;29.20;101093.69;5123136;28;20043;-68
2022/03/21 08:28:19;;;;;;;10.90;8.00;;;;;;;7.48;29.36;101259.28;5122909;28;20242;-68
2022/03/21 08:30:51;;;;;;;13.60;7.65;;;;;;;7.42;29.39;101255.84;5122963;28;20047;-68
2022/03/21 08:33:25;;;;;;;15.32;8.50;;;;;;;7.40;29.20;101273.44;5123188;28;20046;-68
2022/03/21 08:35:57;;;;;;;9.27;7.30;;;;;;;7.30;28.71;101268.25;5122797;28;20050;-68
2022/03/21 08:38:29;;;;;;;9.77;7.47;;;;;;;7.41;28.95;101265.53;5123093;28;20097;-68
2022/03/21 08:41:01;;;;;;;8.88;6.72;;;;;;;7.64;28.85;101259.97;5122549;28;20039;-68
2022/03/21 08:43:33;;;;;;;8.27;6.55;;;;;;;7.65;28.15;101262.56;5105231;28;20039;-68
2022/03/21 08:46:06;;;;;;;8.82;7.00;;;;;;;7.67;28.15;101263.44;5122578;28;20044;-67
2022/03/21 08:51:29;;;;;;;10.48;6.25;;;;;;;7.88;28.32;101254.34;5122348;28;20109;-68
2022/03/21 08:54:01;;;;;;;9.13;7.13;;;;;;;7.92;27.86;101253.41;5105651;28;20046;-68
2022/03/21 08:56:34;;;;;;;9.63;6.95;;;;;;;8.10;27.45;101254.91;5122269;28;20051;-68
2022/03/21 08:59:06;;;;;;;16.02;7.55;;;;;;;8.20;27.08;101242.44;5104695;28;20044;-68
2022/03/21 09:01:39;;;;;;;9.80;6.28;;;;;;;8.54;27.15;101226.91;5083861;28;20115;-68
2022/03/21 09:04:12;;;;;;;9.82;5.93;;;;;;;8.51;26.46;101250.75;5102122;28;20082;-66
2022/03/21 09:06:45;;;;;;;7.97;6.78;;;;;;;8.32;26.11;101248.41;5101975;28;20044;-66
2022/03/21 09:09:18;;;;;;;11.52;7.63;;;;;;;8.21;26.05;101250.34;5102262;28;20044;-66
2022/03/21 09:11:51;;;;;;;9.45;7.70;;;;;;;8.24;26.44;101249.41;5100622;28;20098;-66
2022/03/21 09:14:23;;;;;;;8.30;6.25;;;;;;;7.29;27.38;101076.59;5088298;28;20040;-66
2022/03/21 09:16:57;;;;;;;8.48;6.13;;;;;;;8.34;25.94;101245.72;5087418;28;20287;-66
2022/03/21 09:19:31;;;;;;;11.48;6.70;;;;;;;8.08;26.06;101203.00;5087423;28;20048;-66
2022/03/21 09:22:04;;;;;;;8.23;5.82;;;;;;;7.57;25.80;101152.75;5088124;28;20044;-67
2022/03/21 09:24:36;;;;;;;10.05;6.50;;;;;;;8.50;25.99;101235.78;5087377;28;20040;-68
2022/03/21 09:27:10;;;;;;;9.70;7.47;;;;;;;8.64;26.29;101233.78;5088028;28;20044;-67
2022/03/21 09:29:43;;;;;;;14.23;6.90;;;;;;;8.46;25.60;101205.91;5088214;28;20090;-66
2022/03/21 09:32:17;;;;;;;9.90;6.20;;;;;;;8.84;25.33;101239.59;5087889;28;20056;-66
2022/03/21 09:34:51;;;;;;;8.15;5.90;;;;;;;8.82;25.18;101244.03;5088285;28;20071;-66
2022/03/21 09:37:23;;;;;;;8.75;6.22;;;;;;;8.69;25.47;101197.56;5088041;28;20055;-66
2022/03/21 09:39:55;;;;;;;7.53;5.63;;;;;;;9.07;25.49;101228.56;5088107;28;20036;-68
2022/03/21 09:42:24;;;;;;;8.15;6.13;;;;;;;9.03;24.45;101234.81;5088045;28;20047;-68
2022/03/21 09:44:54;;;;;;;8.75;5.85;;;;;;;9.04;24.63;101236.56;5087771;28;20040;-67
2022/03/21 09:50:16;;;;;;;8.20;6.10;;;;;;;9.31;24.93;101228.13;5087692;28;20040;-67
2022/03/21 09:52:50;;;;;;;7.80;5.47;;;;;;;9.13;24.12;101246.09;5087121;28;20044;-69
2022/03/21 09:55:22;;;;;;;9.40;6.78;;;;;;;9.12;24.01;101244.34;5087845;28;20048;-67
2022/03/21 09:57:54;;;;;;;9.20;6.53;;;;;;;9.15;24.77;101221.34;5087430;28;20101;-67
2022/03/21 10:00:27;;;;;;;9.70;6.53;;;;;;;9.31;24.44;101217.53;5089850;28;20040;-68
2022/03/21 10:02:59;;;;;;;8.55;6.15;;;;;;;8.96;24.11;101175.88;5090083;28;20044;-67
2022/03/21 10:05:34;;;;;;;10.10;7.03;;;;;;;9.42;24.31;101208.53;5107744;28;20085;-67
2022/03/21 10:08:14;;;;;;;8.13;6.25;;;;;;;9.40;24.45;101212.97;5090138;28;20053;-67
2022/03/21 10:10:55;;;;;;;9.07;6.35;;;;;;;9.25;24.34;101154.16;5107697;28;20040;-67
2022/03/21 10:13:29;;;;;;;8.68;7.18;;;;;;;9.78;24.27;101198.91;5107497;28;20044;-67
2022/03/21 10:16:12;;;;;;;9.60;6.00;;;;;;;9.72;23.39;101157.56;5107699;28;20050;-67
2022/03/21 10:18:57;;;;;;;7.75;6.10;;;;;;;9.33;23.09;101103.72;5107421;28;20341;-67
2022/03/21 10:21:31;;;;;;;8.10;6.03;;;;;;;10.34;23.39;101192.28;5089443;28;20085;-67
2022/03/21 10:24:06;;;;;;;10.38;6.82;;;;;;;10.30;23.06;101203.84;5106395;28;20167;-67
2022/03/21 10:26:42;;;;;;;7.40;6.40;;;;;;;10.24;23.37;101185.47;5089586;28;20280;-66
2022/03/21 10:29:15;;;;;;;9.02;6.05;;;;;;;10.56;23.65;101181.97;5090205;28;20040;-67
2022/03/21 10:31:50;;;;;;;9.32;5.85;;;;;;;10.36;23.06;101132.13;5107084;28;20043;-68
2022/03/21 10:34:30;;;;;;;9.43;5.82;;;;;;;10.55;22.78;101199.69;5106770;28;20230;-67
2022/03/21 10:37:06;;;;;;;8.27;6.07;;;;;;;10.52;22.85;101199.75;5106780;28;20310;-68
2022/03/21 10:39:40;;;;;;;7.32;5.60;;;;;;;10.63;23.71;101185.34;5106854;28;20298;-67
2022/03/21 10:42:12;;;;;;;9.82;6.53;;;;;;;10.65;23.27;101183.53;5107016;28;20089;-67
2022/03/21 10:44:56;;;;;;;7.65;6.85;;;;;;;10.40;22.77;101133.81;5106525;28;20040;-67
2022/03/21 10:47:27;;;;;;;8.60;6.35;;;;;;;10.69;22.88;101182.53;5106508;28;20047;-67
2022/03/21 10:50:02;;;;;;;8.40;6.82;;;;;;;10.55;22.76;101181.13;5106741;28;20089;-68
2022/03/21 10:52:33;;;;;;;9.18;6.85;;;;;;;10.77;23.07;101173.50;5106602;28;20112;-68
2022/03/21 10:55:04;;;;;;;9.13;6.20;;;;;;;11.16;23.09;101168.84;5106433;28;20040;-68
2022/03/21 10:57:37;;;;;;;9.15;6.20;;;;;;;10.90;22.43;101150.16;5088808;28;20052;-68
2022/03/21 11:00:15;;;;;;;8.98;6.28;;;;;;;11.06;21.95;101163.84;5106403;28;20040;-68
2022/03/21 11:02:53;;;;;;;8.60;6.35;;;;;;;9.98;21.98;101016.56;5106111;28;20097;-67
2022/03/21 11:05:28;;;;;;;7.90;5.85;;;;;;;11.24;22.04;101158.88;5105395;28;20040;-68
2022/03/21 11:08:03;;;;;;;7.97;6.07;;;;;;;11.15;22.28;101116.69;5105448;28;20040;-67
2022/03/21 11:10:35;;;;;;;7.45;5.97;;;;;;;11.54;22.40;101158.88;5088319;28;20051;-67
2022/03/21 11:13:09;;;;;;;8.25;5.30;;;;;;;11.71;21.96;101151.25;5106390;28;20239;-67
2022/03/21 11:15:42;;;;;;;8.13;6.00;;;;;;;11.71;22.54;101153.91;5106354;28;20089;-68
2022/03/21 11:18:14;;;;;;;9.10;6.97;;;;;;;11.81;22.50;101150.06;5088667;28;20374;-68
2022/03/21 11:20:47;;;;;;;10.57;7.63;;;;;;;11.84;21.49;101144.63;5105947;28;20085;-67
2022/03/21 11:23:21;;;;;;;9.70;6.18;;;;;;;12.09;21.65;101138.56;5105775;28;20047;-68
2022/03/21 11:25:57;;;;;;;7.03;5.07;;;;;;;7.66;21.64;100395.28;5106171;28;20047;-68
2022/03/21 11:29:09;;;;;;;8.65;5.78;;;;;;;11.94;20.83;101133.72;5105854;28;20040;-68
2022/03/21 11:32:07;;;;;;;6.90;5.43;;;;;;;12.04;20.58;101130.75;5105913;28;20276;-67
2022/03/21 11:34:47;;;;;;;8.52;5.70;;;;;;;11.98;21.04;101127.38;5105906;28;20036;-68
2022/03/21 11:37:27;;;;;;;8.63;5.25;;;;;;;11.99;20.67;101156.56;5105516;28;20082;-68
2022/03/21 11:40:30;;;;;;;6.55;5.50;;;;;;;12.02;20.80;101126.41;5105130;28;20056;-68
2022/03/21 11:43:26;;;;;;;6.82;5.43;;;;;;;12.19;20.40;101122.28;5087619;28;20040;-68
2022/03/21 11:45:58;;;;;;;6.65;4.88;;;;;;;12.27;21.14;101121.16;5105532;28;20063;-67
2022/03/21 11:48:37;;;;;;;8.07;5.32;;;;;;;12.07;20.36;101076.63;5105132;28;20237;-68
2022/03/21 11:51:34;;;;;;;7.70;6.00;;;;;;;12.27;20.08;101114.06;5105532;28;20184;-68
2022/03/21 11:54:25;;;;;;;6.57;5.22;;;;;;;12.18;20.51;101117.03;5105449;28;20257;-68
2022/03/21 11:57:01;;;;;;;7.65;5.57;;;;;;;11.90;20.37;101071.84;5105544;28;20040;-67
2022/03/21 12:00:17;;;;;;;7.45;5.68;;;;;;;12.19;20.02;101113.44;5087618;28;20051;-68
2022/03/21 12:02:58;;;;;;;7.15;5.78;;;;;;;12.03;20.79;101117.50;5023780;28;20194;-64
2022/03/21 12:05:52;;;;;;;15.95;6.35;;;;;;;10.42;21.23;100853.69;5023725;28;20244;-63
2022/03/21 12:08:49;;;;;;;9.52;5.72;;;;;;;12.09;21.03;101106.66;5090955;28;20353;-64
2022/03/21 12:12:01;;;;;;;9.38;5.88;;;;;;;11.92;20.61;101079.75;5105354;28;20044;-63
2022/03/21 12:14:44;;;;;;;8.00;5.05;;;;;;;12.10;21.09;101129.66;5104993;28;20245;-64
2022/03/21 12:17:37;;;;;;;7.97;5.63;;;;;;;12.23;20.89;101096.47;5105038;28;20101;-63
2022/03/21 12:20:12;;;;;;;7.57;5.97;;;;;;;11.95;20.66;101061.94;5105168;28;20066;-64
2022/03/21 12:22:47;;;;;;;9.45;5.93;;;;;;;12.20;21.09;101099.22;5105155;28;20097;-64
2022/03/21 12:25:21;;;;;;;7.35;5.32;;;;;;;12.09;20.55;101049.06;5087173;28;20044;-64
2022/03/21 12:27:57;;;;;;;6.80;5.03;;;;;;;12.10;21.20;101042.84;5105096;28;20036;-65